Time,TemperatureF,DewpointF,PressureIn,WindDirection,WindDirectionDegrees,WindSpeedMPH,WindSpeedGustMPH,Humidity,HourlyPrecipIn,Conditions,Clouds,dailyrainin,SolarRadiationWatts/m^2,SoftwareType,DateUTC
2013-06-12 00:02:00,70.0,27.0,-100.00,SE,143,7.0,11.0,20,0.00,,,0.00,0.000000,,2013-06-12 07:02:00,
2013-06-12 00:22:00,70.0,27.0,-100.00,SE,143,7.0,11.0,20,0.00,,,0.00,0.000000,,2013-06-12 07:22:00,
2013-06-12 00:33:00,70.0,27.0,-100.00,SE,143,7.0,11.0,20,0.00,,,0.00,0.000000,,2013-06-12 07:33:00,
2013-06-12 00:43:00,70.0,27.0,-100.00,SE,143,7.0,11.0,20,0.00,,,0.00,0.000000,,2013-06-12 07:43:00,
2013-06-12 00:53:00,70.0,27.0,-100.00,SE,143,7.0,11.0,20,0.00,,,0.00,0.000000,,2013-06-12 07:53:00,
2013-06-12 01:33:00,69.0,31.0,-100.00,SE,139,7.0,11.0,24,0.00,,,0.00,0.000000,,2013-06-12 08:33:00,
2013-06-12 01:43:00,69.0,31.0,-100.00,SE,139,7.0,11.0,24,0.00,,,0.00,0.000000,,2013-06-12 08:43:00,
2013-06-12 01:53:00,69.0,31.0,-100.00,SE,139,7.0,11.0,24,0.00,,,0.00,0.000000,,2013-06-12 08:53:00,
2013-06-12 02:01:00,69.0,31.0,-100.00,SE,139,7.0,11.0,24,0.00,,,0.00,0.000000,,2013-06-12 09:01:00,
2013-06-12 02:22:00,70.0,32.0,-100.00,South,189,6.0,10.0,24,0.00,,,0.00,0.000000,,2013-06-12 09:22:00,
2013-06-12 02:33:00,70.0,32.0,-100.00,South,189,6.0,10.0,24,0.00,,,0.00,0.000000,,2013-06-12 09:33:00,
2013-06-12 02:43:00,70.0,32.0,-100.00,South,189,6.0,10.0,24,0.00,,,0.00,0.000000,,2013-06-12 09:43:00,
2013-06-12 02:53:00,70.0,32.0,-100.00,South,189,6.0,10.0,24,0.00,,,0.00,0.000000,,2013-06-12 09:53:00,
2013-06-12 03:01:00,70.0,32.0,-100.00,South,189,6.0,10.0,24,0.00,,,0.00,0.000000,,2013-06-12 10:01:00,
2013-06-12 03:33:00,68.0,33.0,-100.00,SE,141,6.0,11.0,27,0.00,,,0.00,0.000000,,2013-06-12 10:33:00,
2013-06-12 03:43:00,68.0,33.0,-100.00,SE,141,6.0,11.0,27,0.00,,,0.00,0.000000,,2013-06-12 10:43:00,
2013-06-12 03:53:00,68.0,33.0,-100.00,SE,141,6.0,11.0,27,0.00,,,0.00,0.000000,,2013-06-12 10:53:00,
2013-06-12 04:01:00,68.0,33.0,-100.00,SE,141,6.0,11.0,27,0.00,,,0.00,0.000000,,2013-06-12 11:01:00,
2013-06-12 04:24:00,68.0,36.0,-100.00,SE,142,8.0,12.0,31,0.00,,,0.00,0.000000,,2013-06-12 11:24:00,
2013-06-12 04:33:00,68.0,36.0,-100.00,SE,142,8.0,12.0,31,0.00,,,0.00,0.000000,,2013-06-12 11:33:00,
2013-06-12 04:43:00,68.0,36.0,-100.00,SE,142,8.0,12.0,31,0.00,,,0.00,0.000000,,2013-06-12 11:43:00,
2013-06-12 04:53:00,68.0,36.0,-100.00,SE,142,8.0,12.0,31,0.00,,,0.00,0.000000,,2013-06-12 11:53:00,
2013-06-12 05:01:00,68.0,36.0,-100.00,SE,142,8.0,12.0,31,0.00,,,0.00,0.000000,,2013-06-12 12:01:00,
2013-06-12 05:33:00,68.0,31.0,-100.00,SE,132,7.0,11.0,25,0.00,,,0.00,0.000000,,2013-06-12 12:33:00,
2013-06-12 05:43:00,68.0,31.0,-100.00,SE,132,7.0,11.0,25,0.00,,,0.00,0.000000,,2013-06-12 12:43:00,
2013-06-12 05:53:00,68.0,31.0,-100.00,SE,132,7.0,11.0,25,0.00,,,0.00,0.000000,,2013-06-12 12:53:00,
2013-06-12 06:01:00,68.0,31.0,-100.00,SE,132,7.0,11.0,25,0.00,,,0.00,0.000000,,2013-06-12 13:01:00,
2013-06-12 06:33:00,67.0,32.0,-100.00,SE,139,6.0,10.0,27,0.00,,,0.00,5.000000,,2013-06-12 13:33:00,
2013-06-12 06:43:00,67.0,32.0,-100.00,SE,139,6.0,10.0,27,0.00,,,0.00,5.000000,,2013-06-12 13:43:00,
2013-06-12 06:53:00,67.0,32.0,-100.00,SE,139,6.0,10.0,27,0.00,,,0.00,5.000000,,2013-06-12 13:53:00,
2013-06-12 07:01:00,67.0,32.0,-100.00,SE,139,6.0,10.0,27,0.00,,,0.00,5.000000,,2013-06-12 14:01:00,
2013-06-12 07:24:00,70.0,42.0,-100.00,SE,139,7.0,12.0,36,0.00,,,0.00,103.000000,,2013-06-12 14:24:00,
2013-06-12 07:33:00,70.0,42.0,-100.00,SE,139,7.0,12.0,36,0.00,,,0.00,103.000000,,2013-06-12 14:33:00,
2013-06-12 07:43:00,70.0,42.0,-100.00,SE,139,7.0,12.0,36,0.00,,,0.00,103.000000,,2013-06-12 14:43:00,
2013-06-12 07:53:00,70.0,42.0,-100.00,SE,139,7.0,12.0,36,0.00,,,0.00,103.000000,,2013-06-12 14:53:00,
2013-06-12 08:01:00,70.0,42.0,-100.00,SE,139,7.0,12.0,36,0.00,,,0.00,103.000000,,2013-06-12 15:01:00,
2013-06-12 08:33:00,74.0,42.0,-100.00,SE,137,8.0,14.0,32,0.00,,,0.00,341.000000,,2013-06-12 15:33:00,
2013-06-12 08:43:00,74.0,42.0,-100.00,SE,137,8.0,14.0,32,0.00,,,0.00,341.000000,,2013-06-12 15:43:00,
2013-06-12 08:52:00,74.0,42.0,-100.00,SE,137,8.0,14.0,32,0.00,,,0.00,341.000000,,2013-06-12 15:52:00,
2013-06-12 09:01:00,74.0,42.0,-100.00,SE,137,8.0,14.0,32,0.00,,,0.00,341.000000,,2013-06-12 16:01:00,
2013-06-12 09:33:00,77.0,42.0,-100.00,SE,129,8.0,18.0,29,0.00,,,0.00,523.000000,,2013-06-12 16:33:00,
2013-06-12 09:43:00,77.0,42.0,-100.00,SE,129,8.0,18.0,29,0.00,,,0.00,523.000000,,2013-06-12 16:43:00,
2013-06-12 09:52:00,77.0,42.0,-100.00,SE,129,8.0,18.0,29,0.00,,,0.00,523.000000,,2013-06-12 16:52:00,
2013-06-12 10:01:00,77.0,42.0,-100.00,SE,129,8.0,18.0,29,0.00,,,0.00,523.000000,,2013-06-12 17:01:00,
2013-06-12 10:02:00,78.0,41.0,-100.00,SE,125,8.0,15.0,27,0.00,,,0.00,703.000000,,2013-06-12 17:02:00,
2013-06-12 10:23:00,78.0,41.0,-100.00,SE,125,8.0,15.0,27,0.00,,,0.00,703.000000,,2013-06-12 17:23:00,
2013-06-12 10:33:00,78.0,41.0,-100.00,SE,125,8.0,15.0,27,0.00,,,0.00,703.000000,,2013-06-12 17:33:00,
2013-06-12 10:42:00,78.0,41.0,-100.00,SE,125,8.0,15.0,27,0.00,,,0.00,703.000000,,2013-06-12 17:42:00,
2013-06-12 10:52:00,78.0,41.0,-100.00,SE,125,8.0,15.0,27,0.00,,,0.00,703.000000,,2013-06-12 17:52:00,
2013-06-12 11:33:00,78.0,43.0,-100.00,SSE,151,9.0,19.0,29,0.00,,,0.00,942.000000,,2013-06-12 18:33:00,
2013-06-12 11:43:00,78.0,43.0,-100.00,SSE,151,9.0,19.0,29,0.00,,,0.00,942.000000,,2013-06-12 18:43:00,
2013-06-12 11:53:00,78.0,43.0,-100.00,SSE,151,9.0,19.0,29,0.00,,,0.00,942.000000,,2013-06-12 18:53:00,
2013-06-12 12:01:00,78.0,43.0,-100.00,SSE,151,9.0,19.0,29,0.00,,,0.00,942.000000,,2013-06-12 19:01:00,
2013-06-12 12:22:00,76.0,46.0,-100.00,SE,137,9.0,21.0,35,0.00,,,0.00,999.000000,,2013-06-12 19:22:00,
2013-06-12 12:32:00,76.0,46.0,-100.00,SE,137,9.0,21.0,35,0.00,,,0.00,999.000000,,2013-06-12 19:32:00,
2013-06-12 12:42:00,76.0,46.0,-100.00,SE,137,9.0,21.0,35,0.00,,,0.00,999.000000,,2013-06-12 19:42:00,
2013-06-12 12:52:00,76.0,46.0,-100.00,SE,137,9.0,21.0,35,0.00,,,0.00,999.000000,,2013-06-12 19:52:00,
2013-06-12 13:01:00,76.0,46.0,-100.00,SE,137,9.0,21.0,35,0.00,,,0.00,999.000000,,2013-06-12 20:01:00,
2013-06-12 13:33:00,76.0,47.0,-100.00,SE,126,9.0,19.0,36,0.00,,,0.00,952.000000,,2013-06-12 20:33:00,
2013-06-12 13:43:00,76.0,47.0,-100.00,SE,126,9.0,19.0,36,0.00,,,0.00,952.000000,,2013-06-12 20:43:00,
2013-06-12 13:54:00,76.0,47.0,-100.00,SE,126,9.0,19.0,36,0.00,,,0.00,952.000000,,2013-06-12 20:54:00,
2013-06-12 14:01:00,76.0,47.0,-100.00,SE,126,9.0,19.0,36,0.00,,,0.00,952.000000,,2013-06-12 21:01:00,
2013-06-12 14:33:00,78.0,41.0,-100.00,SE,140,12.0,20.0,27,0.00,,,0.00,974.000000,,2013-06-12 21:33:00,
2013-06-12 15:33:00,75.0,44.0,-100.00,SSE,152,13.0,22.0,33,0.00,,,0.00,1128.000000,,2013-06-12 22:33:00,
2013-06-12 15:43:00,75.0,44.0,-100.00,SSE,152,13.0,22.0,33,0.00,,,0.00,1128.000000,,2013-06-12 22:43:00,
2013-06-12 15:52:00,75.0,44.0,-100.00,SSE,152,13.0,22.0,33,0.00,,,0.00,1128.000000,,2013-06-12 22:52:00,
2013-06-12 16:01:00,75.0,44.0,-100.00,SSE,152,13.0,22.0,33,0.00,,,0.00,1128.000000,,2013-06-12 23:01:00,
2013-06-12 16:32:00,74.0,43.0,-100.00,SSE,153,12.0,21.0,33,0.00,,,0.00,877.000000,,2013-06-12 23:32:00,
2013-06-12 16:42:00,74.0,43.0,-100.00,SSE,153,12.0,21.0,33,0.00,,,0.00,877.000000,,2013-06-12 23:42:00,
2013-06-12 16:52:00,74.0,43.0,-100.00,SSE,153,12.0,21.0,33,0.00,,,0.00,877.000000,,2013-06-12 23:52:00,
2013-06-12 17:01:00,74.0,43.0,-100.00,SSE,153,12.0,21.0,33,0.00,,,0.00,877.000000,,2013-06-13 00:01:00,
2013-06-12 17:33:00,72.0,46.0,-100.00,SE,143,13.0,23.0,39,0.00,,,0.00,813.000000,,2013-06-13 00:33:00,
2013-06-12 17:43:00,72.0,46.0,-100.00,SE,143,13.0,23.0,39,0.00,,,0.00,813.000000,,2013-06-13 00:43:00,
2013-06-12 17:52:00,72.0,46.0,-100.00,SE,143,13.0,23.0,39,0.00,,,0.00,813.000000,,2013-06-13 00:52:00,
2013-06-12 18:01:00,72.0,46.0,-100.00,SE,143,13.0,23.0,39,0.00,,,0.00,813.000000,,2013-06-13 01:01:00,
2013-06-12 18:33:00,69.0,51.0,-100.00,SE,143,11.0,23.0,53,0.00,,,0.00,569.000000,,2013-06-13 01:33:00,
2013-06-12 18:43:00,69.0,51.0,-100.00,SE,143,11.0,23.0,53,0.00,,,0.00,569.000000,,2013-06-13 01:43:00,
2013-06-12 18:53:00,69.0,51.0,-100.00,SE,143,11.0,23.0,53,0.00,,,0.00,569.000000,,2013-06-13 01:53:00,
2013-06-12 19:01:00,69.0,51.0,-100.00,SE,143,11.0,23.0,53,0.00,,,0.00,569.000000,,2013-06-13 02:01:00,
2013-06-12 19:33:00,68.0,51.0,-100.00,SSE,165,9.0,18.0,54,0.00,,,0.00,315.000000,,2013-06-13 02:33:00,
2013-06-12 19:43:00,68.0,51.0,-100.00,SSE,165,9.0,18.0,54,0.00,,,0.00,315.000000,,2013-06-13 02:43:00,
2013-06-12 19:52:00,68.0,51.0,-100.00,SSE,165,9.0,18.0,54,0.00,,,0.00,315.000000,,2013-06-13 02:52:00,
2013-06-12 20:01:00,68.0,51.0,-100.00,SSE,165,9.0,18.0,54,0.00,,,0.00,315.000000,,2013-06-13 03:01:00,
2013-06-12 20:22:00,64.0,50.0,-100.00,SE,135,8.0,13.0,60,0.00,,,0.00,85.000000,,2013-06-13 03:22:00,
2013-06-12 20:33:00,64.0,50.0,-100.00,SE,135,8.0,13.0,60,0.00,,,0.00,85.000000,,2013-06-13 03:33:00,
2013-06-12 20:43:00,64.0,50.0,-100.00,SE,135,8.0,13.0,60,0.00,,,0.00,85.000000,,2013-06-13 03:43:00,
2013-06-12 20:52:00,64.0,50.0,-100.00,SE,135,8.0,13.0,60,0.00,,,0.00,85.000000,,2013-06-13 03:52:00,
2013-06-12 21:01:00,64.0,50.0,-100.00,SE,135,8.0,13.0,60,0.00,,,0.00,85.000000,,2013-06-13 04:01:00,
2013-06-12 21:33:00,63.0,46.0,-100.00,SE,130,4.0,17.0,53,0.00,,,0.00,1.000000,,2013-06-13 04:33:00,
2013-06-12 21:43:00,63.0,46.0,-100.00,SE,130,4.0,17.0,53,0.00,,,0.00,1.000000,,2013-06-13 04:43:00,
2013-06-12 21:53:00,63.0,46.0,-100.00,SE,130,4.0,17.0,53,0.00,,,0.00,1.000000,,2013-06-13 04:53:00,
2013-06-12 22:01:00,63.0,46.0,-100.00,SE,130,4.0,17.0,53,0.00,,,0.00,1.000000,,2013-06-13 05:01:00,
2013-06-12 22:33:00,63.0,30.0,-100.00,SE,146,7.0,15.0,29,0.00,,,0.00,0.000000,,2013-06-13 05:33:00,
2013-06-12 22:43:00,63.0,30.0,-100.00,SE,146,7.0,15.0,29,0.00,,,0.00,0.000000,,2013-06-13 05:43:00,
2013-06-12 22:53:00,63.0,30.0,-100.00,SE,146,7.0,15.0,29,0.00,,,0.00,0.000000,,2013-06-13 05:53:00,